Main page
METAR-TAF:

METAR-TAF

Airports :

Niederstetten Air Base

Niederstetten, Germany

latitude: 49-24N, longitude: 009-58E, elevation: 468 m

Current weather observation

The report was made 14 minutes ago, at 16:33 UTC
Wind 11 kt from the East/Southeast
Temperature 12°C
Humidity 94%
Pressure 1014 hPa
Visibility: 8000 m
Overcast at a height of 600 ft

METAR: ETHN 231633Z 12011KT 8000 OVC006 12/11 Q1014 YLO YLO

Time: 18:47 (16:47 UTC)

Forecast

The report was made 14 minutes ago, at 16:33 UTC
Forecast valid from 23 at 16 UTC to 23 at 23 UTC
Wind 10 kt from the East/Southeast
Visibility: 7000 m
Broken clouds at a height of 600 ft
Temporary
from 23 at 17 UTC to 23 at 23 UTC
Wind 8 kt from the East/Southeast
Visibility: 3000 m
Overcast at a height of 300 ft
mist

TAF: ETHN 231633Z 2316/2323 12010KT 7000 NSW BKN006 TEMPO 2317/2323 12008KT 3000 BR OVC003

Weather observations and forecasts of more than 4000 airports (METAR and TAF reports).

The available stations are represented by yellow and red dots on the map.

Hover mouse over dot to see the name of the station.

Then click to see weather observations and forecasts.

To change the map : click on the green buttons with a black cross to zoom in, on the green button with a dash to zoom out, or on the green arrows for adjacent maps.


METAR-TAF: